Time;durP1;ratioP1;P1;durP2;ratioP2;P2;SDS_P1;SDS_P2;PMS_P1;PMS_P2;Temp;Humidity;BMP_temperature;BMP_pressure;BME280_temperature;BME280_humidity;BME280_pressure;Samples;Min_cycle;Max_cycle;Signal;HPM_P1;HPM_P2
2022/12/29 00:02:12;;;;;;;5.63;2.85;;;2.70;99.90;;;;;;5084944;28;20079;-31
2022/12/29 00:04:38;;;;;;;4.90;3.00;;;3.00;99.90;;;;;;5100764;27;20028;-33
2022/12/29 00:07:04;;;;;;;8.68;3.10;;;3.20;99.90;;;;;;5089955;28;20069;-31
2022/12/29 00:09:31;;;;;;;11.50;4.05;;;3.30;99.90;;;;;;5093777;27;20278;-34
2022/12/29 00:11:57;;;;;;;12.63;4.40;;;3.30;99.90;;;;;;5095822;28;20025;-31
2022/12/29 00:17:07;;;;;;;9.00;3.72;;;3.40;99.90;;;;;;5091730;28;20130;-31
2022/12/29 00:35:55;;;;;;;2.45;2.25;;;2.50;99.90;;;;;;5089002;28;20135;-31
2022/12/29 00:44:04;;;;;;;2.15;1.90;;;2.70;99.90;;;;;;5086322;28;20153;-32
2022/12/29 00:46:30;;;;;;;2.13;1.48;;;2.80;99.90;;;;;;5089486;28;20027;-31
2022/12/29 00:51:41;;;;;;;3.08;2.15;;;2.80;99.90;;;;;;5085772;28;20523;-33
2022/12/29 00:54:07;;;;;;;2.85;2.13;;;2.90;99.90;;;;;;5087360;28;20028;-31
2022/12/29 00:56:32;;;;;;;4.78;2.63;;;2.90;99.90;;;;;;5086258;28;20036;-31
2022/12/29 00:59:07;;;;;;;3.67;2.38;;;2.90;99.90;;;;;;5084881;28;20032;-32
2022/12/29 01:01:33;;;;;;;4.30;2.30;;;2.90;99.90;;;;;;5099736;27;20036;-30
2022/12/29 01:03:58;;;;;;;6.18;2.60;;;2.90;99.90;;;;;;5086557;28;20374;-36
2022/12/29 01:06:24;;;;;;;3.50;2.28;;;3.00;99.90;;;;;;5083886;28;20088;-32
2022/12/29 01:10:09;;;;;;;3.00;2.20;;;2.90;99.90;;;;;;5088152;28;20154;-31
2022/12/29 01:11:37;;;;;;;3.25;2.38;;;2.90;99.90;;;;;;5091790;28;20026;-31
2022/12/29 01:14:03;;;;;;;3.08;1.95;;;2.80;99.90;;;;;;5088517;28;20058;-31
2022/12/29 01:16:29;;;;;;;2.63;1.98;;;2.80;99.90;;;;;;5089169;28;20542;-33
2022/12/29 01:18:54;;;;;;;2.80;1.90;;;2.80;99.90;;;;;;5089059;28;20028;-33
2022/12/29 01:21:20;;;;;;;3.25;2.15;;;2.80;99.90;;;;;;5087503;28;20024;-32
2022/12/29 01:23:45;;;;;;;2.50;2.25;;;2.80;99.90;;;;;;5089179;28;20070;-32
2022/12/29 01:26:13;;;;;;;2.08;1.90;;;2.70;99.90;;;;;;5088933;28;20039;-31
2022/12/29 01:28:41;;;;;;;1.93;1.73;;;2.70;99.90;;;;;;5090124;28;20468;-31
2022/12/29 01:31:07;;;;;;;1.63;1.52;;;2.70;99.90;;;;;;5087390;28;20040;-32
2022/12/29 01:33:33;;;;;;;2.10;1.50;;;2.70;99.90;;;;;;5090408;28;20039;-32
2022/12/29 01:36:03;;;;;;;1.73;1.60;;;2.70;99.90;;;;;;5088255;28;20653;-31
2022/12/29 01:38:29;;;;;;;1.70;1.60;;;2.80;99.90;;;;;;5097127;28;20491;-33
2022/12/29 01:40:54;;;;;;;1.58;1.48;;;2.80;99.90;;;;;;5087407;28;20059;-32
2022/12/29 01:43:20;;;;;;;4.82;1.77;;;2.70;99.90;;;;;;5093779;27;20424;-32
2022/12/29 01:45:51;;;;;;;4.38;1.80;;;2.80;99.90;;;;;;5091380;28;20067;-33
2022/12/29 01:48:18;;;;;;;3.53;1.80;;;3.00;99.90;;;;;;5100664;28;20050;-31
2022/12/29 01:50:52;;;;;;;1.42;1.35;;;3.10;99.90;;;;;;5094519;27;20033;-31
2022/12/29 01:53:28;;;;;;;3.88;2.10;;;3.20;99.90;;;;;;5113850;27;20536;-31
2022/12/29 01:56:01;;;;;;;1.60;1.50;;;3.30;99.90;;;;;;5093825;27;20028;-32
2022/12/29 01:58:34;;;;;;;1.40;1.33;;;3.40;99.90;;;;;;5092507;28;20028;-31
2022/12/29 02:01:00;;;;;;;1.60;1.50;;;3.40;99.90;;;;;;5096734;27;20024;-37
2022/12/29 02:03:27;;;;;;;1.50;1.40;;;3.40;99.90;;;;;;5099756;27;20366;-38
2022/12/29 02:05:55;;;;;;;1.20;1.20;;;3.40;99.90;;;;;;5097126;28;20039;-38
2022/12/29 02:08:25;;;;;;;1.33;1.30;;;3.40;99.90;;;;;;5100280;28;20036;-38
2022/12/29 02:10:51;;;;;;;1.58;1.48;;;3.50;99.90;;;;;;5101534;28;20397;-38
2022/12/29 02:13:17;;;;;;;1.30;1.20;;;3.50;99.90;;;;;;5096393;28;20048;-37
2022/12/29 02:16:00;;;;;;;1.85;1.60;;;3.30;99.90;;;;;;5093051;28;20024;-34
2022/12/29 02:18:50;;;;;;;1.85;1.75;;;3.40;99.90;;;;;;5088474;28;20024;-38
2022/12/29 02:22:07;;;;;;;1.70;1.60;;;3.40;99.90;;;;;;5088632;28;20031;-38
2022/12/29 02:25:12;;;;;;;1.35;1.17;;;3.50;99.90;;;;;;5062771;28;20578;-38
2022/12/29 02:27:55;;;;;;;1.27;1.17;;;3.60;99.90;;;;;;5095975;28;20023;-37
2022/12/29 02:31:05;;;;;;;1.65;1.20;;;3.90;99.90;;;;;;5096327;28;20039;-36
2022/12/29 02:33:34;;;;;;;1.00;1.00;;;4.20;99.90;;;;;;5073903;28;20067;-38
2022/12/29 02:36:41;;;;;;;1.10;1.10;;;4.50;99.90;;;;;;5079819;28;20051;-37
2022/12/29 02:39:19;;;;;;;1.27;1.25;;;4.60;99.90;;;;;;5025928;28;20060;-38
2022/12/29 02:42:07;;;;;;;1.20;1.20;;;4.80;99.90;;;;;;5068960;28;20116;-38
2022/12/29 02:44:52;;;;;;;1.33;1.23;;;4.90;99.90;;;;;;5077707;28;20031;-38
2022/12/29 02:47:46;;;;;;;1.30;1.20;;;4.90;99.90;;;;;;5081747;28;20028;-38
2022/12/29 02:50:18;;;;;;;1.45;1.35;;;4.90;99.90;;;;;;5102379;27;20071;-37
2022/12/29 02:52:50;;;;;;;1.42;1.10;;;4.80;99.90;;;;;;5082129;28;20564;-38
2022/12/29 02:55:16;;;;;;;1.05;1.05;;;5.00;99.90;;;;;;5078522;28;20100;-38
2022/12/29 02:57:42;;;;;;;1.60;1.02;;;5.10;99.90;;;;;;5077618;28;20115;-38
2022/12/29 03:00:14;;;;;;;1.00;1.00;;;5.30;99.90;;;;;;5079390;28;20040;-38
2022/12/29 03:03:05;;;;;;;1.92;1.33;;;5.40;99.90;;;;;;5089021;28;20040;-39
2022/12/29 03:05:52;;;;;;;2.65;2.45;;;5.30;99.90;;;;;;5077804;28;20119;-36
2022/12/29 03:08:34;;;;;;;1.77;1.67;;;5.30;99.90;;;;;;5083138;28;20547;-37
2022/12/29 03:11:05;;;;;;;2.55;1.58;;;5.40;99.90;;;;;;5075998;28;20417;-36
2022/12/29 03:16:35;;;;;;;1.20;1.17;;;5.40;99.90;;;;;;5080451;28;20069;-38
2022/12/29 03:19:32;;;;;;;1.52;1.30;;;5.50;99.90;;;;;;5083055;28;20036;-36
2022/12/29 03:25:11;;;;;;;0.90;0.90;;;5.90;99.90;;;;;;5083990;28;20520;-36
2022/12/29 03:27:42;;;;;;;2.42;1.20;;;6.00;99.90;;;;;;5080091;28;20155;-37
2022/12/29 03:30:08;;;;;;;1.10;0.93;;;6.10;99.80;;;;;;5077885;28;20032;-37
2022/12/29 03:32:54;;;;;;;0.70;0.70;;;6.30;98.60;;;;;;5078636;28;20128;-38
2022/12/29 03:35:22;;;;;;;0.90;0.90;;;6.50;96.60;;;;;;5076860;28;20020;-38
2022/12/29 03:38:05;;;;;;;1.40;0.95;;;6.50;96.90;;;;;;5085189;28;20688;-37
2022/12/29 03:40:32;;;;;;;1.17;1.08;;;6.50;96.90;;;;;;5088200;28;20666;-38
2022/12/29 03:42:58;;;;;;;1.00;1.00;;;6.50;96.30;;;;;;5083048;28;20035;-38
2022/12/29 03:45:24;;;;;;;0.60;0.60;;;6.70;94.40;;;;;;5087745;28;20526;-38
2022/12/29 03:47:51;;;;;;;1.17;1.15;;;6.80;94.80;;;;;;5081045;28;20032;-38
2022/12/29 03:50:17;;;;;;;0.90;0.90;;;6.80;93.30;;;;;;5068121;28;20697;-38
2022/12/29 03:52:42;;;;;;;1.20;1.10;;;6.90;93.20;;;;;;5055287;28;20024;-37
2022/12/29 03:55:08;;;;;;;1.52;1.30;;;6.80;94.70;;;;;;5054766;28;20612;-39
2022/12/29 03:57:34;;;;;;;1.05;1.05;;;6.90;95.20;;;;;;5068766;28;21198;-39
2022/12/29 04:00:00;;;;;;;1.27;1.10;;;7.00;92.40;;;;;;5078568;28;20043;-39
2022/12/29 04:02:25;;;;;;;2.28;1.20;;;7.10;93.70;;;;;;5095199;27;20960;-39
2022/12/29 04:04:51;;;;;;;0.82;0.82;;;7.10;93.90;;;;;;5099504;28;20031;-35
2022/12/29 04:07:16;;;;;;;1.20;1.10;;;7.20;92.70;;;;;;5075313;28;20032;-37
2022/12/29 04:09:42;;;;;;;2.05;1.13;;;7.10;93.90;;;;;;5076361;28;20035;-37
2022/12/29 04:12:07;;;;;;;3.30;1.00;;;7.30;93.90;;;;;;5075636;28;20032;-37
2022/12/29 04:14:33;;;;;;;1.63;1.10;;;7.30;91.50;;;;;;5074164;28;20052;-37
2022/12/29 04:16:59;;;;;;;0.93;0.93;;;7.30;91.40;;;;;;5075510;28;20040;-37
2022/12/29 04:19:24;;;;;;;1.83;0.98;;;7.40;91.40;;;;;;5076042;28;20095;-37
2022/12/29 04:21:50;;;;;;;1.50;1.20;;;7.40;91.80;;;;;;5074078;28;20034;-36
2022/12/29 04:24:17;;;;;;;0.80;0.80;;;7.40;91.80;;;;;;5073058;28;20027;-36
2022/12/29 04:26:42;;;;;;;0.80;0.80;;;7.50;87.40;;;;;;5073963;28;20889;-36
2022/12/29 04:29:08;;;;;;;0.80;0.80;;;7.60;83.80;;;;;;5073882;28;20141;-38
2022/12/29 04:31:33;;;;;;;1.17;1.10;;;7.70;82.00;;;;;;5069999;28;20689;-34
2022/12/29 04:33:59;;;;;;;1.00;1.00;;;7.70;89.00;;;;;;5084079;28;20064;-39
2022/12/29 04:36:26;;;;;;;0.70;0.70;;;7.60;84.00;;;;;;5101494;28;20016;-39
2022/12/29 04:38:51;;;;;;;0.90;0.90;;;7.70;84.90;;;;;;5099516;28;20136;-38
2022/12/29 04:41:17;;;;;;;0.70;0.65;;;7.60;84.80;;;;;;5096342;28;20031;-37
2022/12/29 04:43:43;;;;;;;2.03;1.02;;;7.70;80.10;;;;;;5100220;28;20023;-39
2022/12/29 04:46:08;;;;;;;1.35;1.10;;;7.70;86.10;;;;;;5099011;27;20063;-38
2022/12/29 04:48:34;;;;;;;0.77;0.75;;;7.60;84.50;;;;;;5103260;28;20668;-39
2022/12/29 04:51:00;;;;;;;0.93;0.93;;;7.80;79.60;;;;;;5097706;27;20077;-39
2022/12/29 04:53:26;;;;;;;0.80;0.80;;;7.80;79.20;;;;;;5107228;27;20027;-37
2022/12/29 04:55:52;;;;;;;1.85;0.90;;;7.70;78.30;;;;;;5098409;27;20098;-39
2022/12/29 04:58:19;;;;;;;1.88;1.00;;;7.80;79.10;;;;;;5101434;27;20031;-35
2022/12/29 05:00:44;;;;;;;1.15;1.08;;;7.70;80.70;;;;;;5098089;27;20059;-37
2022/12/29 05:03:10;;;;;;;3.25;1.23;;;7.80;75.90;;;;;;5104667;27;20115;-33
2022/12/29 05:05:36;;;;;;;2.35;1.42;;;7.80;80.60;;;;;;5103711;27;20055;-38
2022/12/29 05:08:02;;;;;;;0.88;0.88;;;7.70;79.00;;;;;;5107399;28;20080;-33
2022/12/29 05:10:27;;;;;;;1.33;0.80;;;7.70;79.80;;;;;;5102799;27;20126;-33
2022/12/29 05:12:53;;;;;;;2.67;1.00;;;7.80;75.40;;;;;;5103317;28;20122;-39
2022/12/29 05:15:19;;;;;;;1.25;0.80;;;7.80;77.50;;;;;;5097772;27;20126;-39
2022/12/29 05:17:44;;;;;;;1.00;1.00;;;7.80;77.20;;;;;;5101149;27;20700;-39
2022/12/29 05:20:11;;;;;;;0.80;0.80;;;7.80;77.30;;;;;;5096444;27;20035;-39
2022/12/29 05:22:36;;;;;;;1.98;0.70;;;7.80;73.80;;;;;;5103464;28;20026;-39
2022/12/29 05:25:02;;;;;;;1.02;1.02;;;7.80;75.90;;;;;;5107988;27;20017;-36
2022/12/29 05:27:28;;;;;;;1.08;1.00;;;7.80;73.60;;;;;;5103308;27;20024;-39
2022/12/29 05:29:54;;;;;;;1.27;1.17;;;7.70;78.00;;;;;;5097485;27;20032;-37
2022/12/29 05:32:19;;;;;;;0.85;0.80;;;7.70;78.10;;;;;;5100682;27;20123;-37
2022/12/29 05:34:45;;;;;;;1.02;0.65;;;7.80;74.50;;;;;;5098541;27;20853;-38
2022/12/29 05:37:11;;;;;;;1.00;1.00;;;7.80;75.50;;;;;;5101671;27;20070;-38
2022/12/29 05:39:36;;;;;;;1.10;1.02;;;7.70;77.80;;;;;;5102981;27;20251;-37
2022/12/29 05:42:02;;;;;;;0.90;0.90;;;7.70;77.70;;;;;;5095906;27;20019;-38
2022/12/29 05:44:28;;;;;;;1.50;1.02;;;7.80;76.50;;;;;;5100977;27;20032;-39
2022/12/29 05:46:53;;;;;;;0.75;0.75;;;7.80;76.10;;;;;;5099371;27;20039;-36
2022/12/29 05:49:19;;;;;;;2.42;0.85;;;7.80;75.80;;;;;;5106537;27;20027;-39
2022/12/29 05:51:45;;;;;;;1.23;1.13;;;7.90;76.30;;;;;;5102546;27;20023;-39
2022/12/29 05:54:10;;;;;;;0.75;0.75;;;7.80;78.10;;;;;;5103222;27;20035;-37
2022/12/29 05:56:36;;;;;;;1.30;1.20;;;7.80;76.30;;;;;;5102463;27;20112;-39
2022/12/29 05:59:01;;;;;;;0.90;0.80;;;7.90;77.70;;;;;;5105454;27;20476;-37
2022/12/29 06:01:27;;;;;;;0.88;0.88;;;7.90;75.30;;;;;;5105425;27;20032;-35
2022/12/29 06:03:53;;;;;;;1.20;0.80;;;7.80;78.10;;;;;;5101336;27;20307;-35
2022/12/29 06:06:18;;;;;;;0.50;0.50;;;7.80;77.40;;;;;;5101309;27;20032;-36
2022/12/29 06:08:44;;;;;;;1.30;1.20;;;8.00;76.60;;;;;;5103820;28;20050;-39
2022/12/29 06:11:10;;;;;;;1.77;1.25;;;7.90;77.80;;;;;;5098665;27;20044;-39
2022/12/29 06:13:35;;;;;;;1.05;1.00;;;7.80;80.70;;;;;;5105345;28;20062;-37
2022/12/29 06:16:01;;;;;;;2.95;1.67;;;7.80;81.70;;;;;;5100274;27;20077;-37
2022/12/29 06:18:27;;;;;;;1.15;1.10;;;7.70;80.20;;;;;;5096178;27;20869;-37
2022/12/29 06:20:53;;;;;;;1.77;1.20;;;7.60;83.90;;;;;;5100482;27;20052;-38
2022/12/29 06:23:18;;;;;;;1.30;1.20;;;7.60;83.40;;;;;;5103665;27;20072;-37
2022/12/29 06:25:44;;;;;;;1.63;1.10;;;7.70;83.80;;;;;;5100146;27;20022;-38
2022/12/29 06:28:10;;;;;;;1.23;1.13;;;7.60;84.60;;;;;;5103361;27;20035;-38
2022/12/29 06:30:36;;;;;;;1.65;1.00;;;7.50;87.20;;;;;;5111873;27;20554;-38
2022/12/29 06:33:01;;;;;;;1.30;1.20;;;7.40;90.00;;;;;;5101576;27;20058;-38
2022/12/29 06:35:27;;;;;;;0.90;0.90;;;7.30;91.30;;;;;;5096754;27;20031;-38
2022/12/29 06:37:53;;;;;;;0.90;0.90;;;7.30;90.30;;;;;;5100643;28;20027;-38
2022/12/29 06:40:18;;;;;;;1.30;1.20;;;7.30;91.30;;;;;;5098496;27;20021;-39
2022/12/29 06:42:44;;;;;;;1.73;1.63;;;7.30;92.70;;;;;;5096602;28;20044;-36
2022/12/29 06:45:10;;;;;;;1.48;1.38;;;7.30;91.60;;;;;;5104169;27;20080;-37
2022/12/29 06:47:36;;;;;;;1.23;1.10;;;7.20;93.90;;;;;;5103631;27;20039;-36
2022/12/29 06:50:02;;;;;;;1.27;1.17;;;7.30;93.60;;;;;;5101772;27;20027;-38
2022/12/29 06:52:28;;;;;;;2.85;1.00;;;7.40;93.40;;;;;;5105788;27;20485;-37
2022/12/29 06:54:54;;;;;;;0.95;0.95;;;7.40;94.10;;;;;;5096769;27;20039;-33
2022/12/29 06:57:21;;;;;;;1.80;1.00;;;7.50;94.30;;;;;;5096590;27;20429;-36
2022/12/29 06:59:46;;;;;;;1.08;0.93;;;7.40;94.40;;;;;;5107184;27;20032;-38
2022/12/29 07:02:14;;;;;;;1.10;1.02;;;7.70;93.60;;;;;;5105806;27;20046;-38
2022/12/29 07:04:40;;;;;;;1.25;1.02;;;7.60;94.90;;;;;;5102533;27;20040;-38
2022/12/29 07:07:06;;;;;;;1.42;1.30;;;7.60;95.00;;;;;;5103073;27;20033;-37
2022/12/29 07:09:31;;;;;;;1.23;1.20;;;7.60;94.90;;;;;;5107307;27;20035;-36
2022/12/29 07:11:57;;;;;;;1.80;1.33;;;7.60;95.90;;;;;;5100655;27;20115;-37
2022/12/29 07:14:22;;;;;;;4.20;1.15;;;7.70;95.40;;;;;;5099708;28;20051;-35
2022/12/29 07:16:48;;;;;;;2.60;1.50;;;7.70;96.20;;;;;;5098246;27;20119;-38
2022/12/29 07:19:14;;;;;;;1.05;1.05;;;7.70;95.90;;;;;;5101175;27;20717;-39
2022/12/29 07:21:39;;;;;;;5.07;1.40;;;7.70;96.10;;;;;;5101139;28;20079;-32
2022/12/29 07:24:05;;;;;;;2.03;1.90;;;7.70;96.40;;;;;;5104265;28;20028;-34
2022/12/29 07:26:31;;;;;;;3.80;0.93;;;7.70;97.20;;;;;;5099563;27;20092;-31
2022/12/29 07:28:56;;;;;;;1.08;0.98;;;7.70;96.70;;;;;;5106729;27;20118;-32
2022/12/29 07:31:24;;;;;;;4.43;1.75;;;7.70;97.00;;;;;;5097953;27;20032;-32
2022/12/29 07:33:49;;;;;;;1.15;1.13;;;7.70;95.60;;;;;;5104727;27;20036;-33
2022/12/29 07:36:16;;;;;;;1.00;0.95;;;7.80;96.00;;;;;;5098876;27;20094;-33
2022/12/29 07:38:43;;;;;;;1.35;1.25;;;7.80;96.30;;;;;;5101643;28;20582;-33
2022/12/29 07:41:08;;;;;;;1.27;1.20;;;7.90;94.60;;;;;;5102380;28;20434;-32
2022/12/29 07:43:34;;;;;;;1.58;1.48;;;8.00;95.00;;;;;;5105187;27;20039;-33
2022/12/29 07:46:00;;;;;;;1.40;1.10;;;8.00;95.30;;;;;;5084645;27;20027;-34
2022/12/29 07:48:26;;;;;;;1.80;1.30;;;8.00;95.00;;;;;;5098949;27;20031;-34
2022/12/29 07:50:53;;;;;;;1.42;1.25;;;8.00;94.90;;;;;;5098533;27;20475;-32
2022/12/29 07:53:21;;;;;;;0.88;0.88;;;8.10;94.20;;;;;;5097929;28;20036;-33
2022/12/29 07:55:47;;;;;;;1.52;1.42;;;8.10;94.80;;;;;;5098474;27;20031;-34
2022/12/29 07:58:12;;;;;;;1.63;0.82;;;8.20;94.50;;;;;;5095047;27;20409;-34
2022/12/29 08:00:38;;;;;;;1.08;1.00;;;8.30;94.70;;;;;;5104467;27;20127;-31
2022/12/29 08:03:05;;;;;;;1.65;1.17;;;8.30;93.80;;;;;;5097643;28;20353;-33
2022/12/29 08:05:34;;;;;;;1.63;1.40;;;8.30;93.70;;;;;;5102476;28;20512;-28
2022/12/29 08:07:59;;;;;;;1.92;1.00;;;8.40;92.90;;;;;;5093860;28;20043;-32
2022/12/29 08:10:25;;;;;;;0.85;0.85;;;8.50;92.20;;;;;;5099924;28;20155;-33
2022/12/29 08:12:51;;;;;;;1.40;1.30;;;8.70;90.80;;;;;;5102648;28;20545;-30
2022/12/29 08:15:16;;;;;;;1.35;1.35;;;8.60;92.70;;;;;;5096407;28;20044;-34
2022/12/29 08:17:42;;;;;;;1.90;1.60;;;8.60;93.70;;;;;;5101282;28;20024;-35
2022/12/29 08:20:08;;;;;;;0.85;0.85;;;8.70;91.90;;;;;;5104403;28;20027;-30
2022/12/29 08:22:34;;;;;;;3.85;1.42;;;8.70;92.60;;;;;;5098489;28;20437;-32
2022/12/29 08:25:00;;;;;;;1.50;1.10;;;8.80;91.40;;;;;;5088200;28;20093;-32
2022/12/29 08:27:26;;;;;;;1.10;0.90;;;8.80;91.60;;;;;;5104133;28;20358;-33
2022/12/29 08:29:54;;;;;;;1.13;1.02;;;8.80;92.30;;;;;;5093987;28;20115;-32
2022/12/29 08:32:20;;;;;;;4.00;1.52;;;8.80;92.80;;;;;;5077397;28;20472;-31
2022/12/29 08:34:45;;;;;;;1.70;1.02;;;8.80;94.20;;;;;;5088411;28;20034;-33
2022/12/29 08:37:11;;;;;;;1.25;1.23;;;8.80;93.50;;;;;;5096707;28;20119;-34
2022/12/29 08:39:37;;;;;;;2.20;1.38;;;8.80;94.20;;;;;;5090491;28;20028;-31
2022/12/29 08:42:02;;;;;;;2.08;1.60;;;8.80;94.40;;;;;;5085541;28;20120;-33
2022/12/29 08:44:28;;;;;;;2.63;1.63;;;8.90;94.30;;;;;;5096025;28;20047;-32
2022/12/29 08:46:53;;;;;;;2.00;1.80;;;9.00;94.30;;;;;;5093228;28;20031;-31
2022/12/29 08:49:19;;;;;;;1.73;1.30;;;9.10;94.60;;;;;;5099938;28;20573;-33
2022/12/29 08:51:45;;;;;;;4.22;1.70;;;9.10;94.60;;;;;;5095964;28;20552;-34
2022/12/29 08:54:10;;;;;;;1.65;1.30;;;9.10;94.50;;;;;;5101187;28;20035;-32
2022/12/29 08:56:36;;;;;;;2.25;1.08;;;9.20;93.80;;;;;;5089921;28;20200;-34
2022/12/29 08:59:01;;;;;;;2.42;1.35;;;9.30;93.40;;;;;;5101431;28;20024;-34
2022/12/29 09:01:27;;;;;;;1.77;1.27;;;9.30;95.30;;;;;;5093845;28;20051;-32
2022/12/29 09:03:54;;;;;;;3.28;1.70;;;9.30;94.50;;;;;;5096575;28;20077;-31
2022/12/29 09:06:20;;;;;;;1.70;1.52;;;9.40;94.90;;;;;;5088351;28;20120;-35
2022/12/29 09:08:46;;;;;;;1.02;1.02;;;9.40;93.50;;;;;;5103924;28;20024;-33
2022/12/29 09:11:15;;;;;;;2.08;1.52;;;9.40;93.80;;;;;;5096978;28;20031;-32
2022/12/29 09:13:41;;;;;;;1.98;1.30;;;9.50;94.20;;;;;;5090440;28;20103;-32
2022/12/29 09:16:07;;;;;;;0.75;0.75;;;9.50;93.50;;;;;;5101622;28;20055;-29
2022/12/29 09:18:32;;;;;;;2.50;1.15;;;9.60;93.40;;;;;;5101373;28;20085;-34
2022/12/29 09:21:01;;;;;;;1.48;1.23;;;9.50;95.10;;;;;;5094500;28;20027;-34
2022/12/29 09:23:27;;;;;;;1.40;1.23;;;9.50;94.90;;;;;;5101129;28;20121;-33
2022/12/29 09:25:53;;;;;;;1.52;0.95;;;9.60;95.20;;;;;;5101472;28;20036;-34
2022/12/29 09:28:20;;;;;;;2.30;1.48;;;9.90;92.70;;;;;;5097984;28;20020;-33
2022/12/29 09:30:46;;;;;;;2.20;1.10;;;9.80;93.30;;;;;;5097551;28;20051;-29
2022/12/29 09:33:11;;;;;;;1.20;1.10;;;9.70;94.50;;;;;;5102508;27;20070;-33
2022/12/29 09:35:40;;;;;;;1.30;1.20;;;9.80;93.60;;;;;;5101480;27;20035;-30
2022/12/29 09:38:06;;;;;;;1.70;1.38;;;9.80;94.10;;;;;;5098443;27;20024;-33
2022/12/29 09:40:33;;;;;;;1.10;1.08;;;9.80;92.50;;;;;;5099124;27;20032;-32
2022/12/29 09:43:23;;;;;;;1.67;1.15;;;9.80;92.50;;;;;;5097079;27;20401;-35
2022/12/29 09:46:15;;;;;;;1.30;1.20;;;9.80;91.90;;;;;;5103632;27;20031;-30
2022/12/29 09:48:47;;;;;;;4.82;1.70;;;9.80;91.70;;;;;;5096657;27;20031;-31
2022/12/29 09:51:21;;;;;;;1.13;1.10;;;9.80;91.40;;;;;;5095755;27;20401;-34
2022/12/29 09:54:01;;;;;;;1.40;1.30;;;9.80;91.40;;;;;;5108693;27;20045;-33
2022/12/29 09:56:28;;;;;;;1.88;1.10;;;9.80;90.50;;;;;;5094884;27;20047;-29
2022/12/29 09:59:06;;;;;;;0.95;0.95;;;9.90;90.70;;;;;;5098489;27;20035;-34
2022/12/29 10:01:38;;;;;;;3.20;1.88;;;9.90;91.80;;;;;;5100204;27;20085;-32
2022/12/29 10:04:05;;;;;;;2.53;1.60;;;9.90;92.30;;;;;;5096598;27;20060;-34
2022/12/29 10:06:59;;;;;;;2.63;1.60;;;10.00;90.60;;;;;;5101267;27;20034;-34
2022/12/29 10:09:25;;;;;;;4.40;2.13;;;10.10;91.70;;;;;;5103437;27;20030;-33
2022/12/29 10:11:56;;;;;;;1.95;1.20;;;10.10;91.40;;;;;;5095193;27;20035;-33
2022/12/29 10:14:43;;;;;;;1.10;1.10;;;10.10;91.80;;;;;;5097531;27;20584;-34
2022/12/29 10:17:27;;;;;;;4.20;1.23;;;10.30;91.30;;;;;;5091122;28;21527;-31
2022/12/29 10:19:57;;;;;;;1.20;1.10;;;10.30;90.30;;;;;;5098957;27;20285;-33
2022/12/29 10:22:47;;;;;;;1.00;0.90;;;10.40;91.10;;;;;;5101642;27;20031;-33
2022/12/29 10:25:19;;;;;;;1.25;1.15;;;10.40;90.30;;;;;;5101692;27;20713;-34
2022/12/29 10:27:48;;;;;;;3.15;1.13;;;10.40;91.60;;;;;;5097842;27;20445;-33
2022/12/29 10:30:15;;;;;;;0.95;0.77;;;10.70;89.30;;;;;;5096548;27;20020;-34
2022/12/29 10:32:58;;;;;;;2.20;1.67;;;10.70;90.90;;;;;;5100743;27;20501;-28
2022/12/29 10:35:33;;;;;;;0.90;0.90;;;10.80;89.00;;;;;;5097697;28;20393;-33
2022/12/29 10:38:26;;;;;;;0.90;0.90;;;10.80;89.40;;;;;;5096125;27;20076;-34
2022/12/29 10:41:31;;;;;;;2.47;0.90;;;10.90;88.00;;;;;;5095617;27;20024;-34
2022/12/29 10:43:59;;;;;;;0.90;0.80;;;10.80;86.10;;;;;;5100083;27;20035;-34
2022/12/29 10:46:29;;;;;;;0.70;0.70;;;10.80;85.70;;;;;;5096918;27;20541;-29
2022/12/29 10:48:55;;;;;;;0.82;0.82;;;10.80;83.40;;;;;;5101100;27;20522;-33
2022/12/29 10:51:42;;;;;;;0.77;0.75;;;10.80;83.50;;;;;;5097947;27;20031;-29
2022/12/29 10:54:18;;;;;;;1.13;1.00;;;10.80;82.10;;;;;;5097153;27;20626;-31
2022/12/29 10:56:49;;;;;;;0.80;0.80;;;11.00;77.00;;;;;;5095811;27;20133;-32
2022/12/29 10:59:35;;;;;;;3.58;1.15;;;11.00;80.00;;;;;;5106130;27;20034;-33
2022/12/29 11:02:06;;;;;;;2.05;1.13;;;11.00;77.50;;;;;;5098349;27;20035;-31
2022/12/29 11:04:51;;;;;;;3.03;0.93;;;11.00;75.70;;;;;;5094337;28;20160;-31
2022/12/29 11:07:18;;;;;;;1.02;0.85;;;10.90;78.30;;;;;;5093641;27;20027;-31
2022/12/29 11:09:45;;;;;;;1.88;1.02;;;11.00;77.80;;;;;;5098342;27;20455;-32
2022/12/29 11:12:30;;;;;;;1.13;0.93;;;11.10;76.60;;;;;;5091563;28;20046;-31
2022/12/29 11:15:15;;;;;;;1.67;1.58;;;11.20;76.60;;;;;;5097230;28;20355;-33
2022/12/29 11:17:46;;;;;;;1.00;0.85;;;11.30;75.20;;;;;;5102570;27;20734;-31
2022/12/29 11:20:30;;;;;;;0.98;0.98;;;11.30;75.90;;;;;;5105539;27;20672;-32
2022/12/29 11:22:56;;;;;;;1.58;1.00;;;11.40;72.00;;;;;;5096209;27;20192;-33
2022/12/29 11:25:21;;;;;;;2.70;1.00;;;11.50;71.40;;;;;;5096383;28;20028;-32
2022/12/29 11:28:01;;;;;;;1.10;1.00;;;11.50;72.80;;;;;;5095886;27;20034;-33
2022/12/29 11:30:30;;;;;;;7.47;1.10;;;11.50;73.90;;;;;;5096166;27;20179;-30
2022/12/29 11:32:57;;;;;;;2.15;1.30;;;11.60;72.30;;;;;;5076659;28;20401;-34
2022/12/29 11:35:30;;;;;;;0.85;0.85;;;11.70;71.20;;;;;;5073822;28;20428;-32
2022/12/29 11:38:01;;;;;;;1.08;0.93;;;11.70;67.50;;;;;;5085002;28;20028;-33
2022/12/29 11:40:31;;;;;;;0.73;0.73;;;11.70;71.80;;;;;;5071551;28;20777;-34
2022/12/29 11:43:04;;;;;;;0.85;0.85;;;11.70;71.20;;;;;;5079801;28;20821;-32
2022/12/29 11:45:35;;;;;;;1.10;1.00;;;11.90;73.70;;;;;;5080433;28;20025;-33
2022/12/29 11:48:19;;;;;;;0.45;0.45;;;11.90;69.50;;;;;;5079137;28;20611;-32
2022/12/29 11:50:52;;;;;;;1.60;1.00;;;11.90;70.60;;;;;;5080943;28;20024;-32
2022/12/29 11:53:48;;;;;;;1.27;0.93;;;11.90;72.70;;;;;;5074199;28;20037;-33
2022/12/29 11:56:17;;;;;;;2.03;1.27;;;11.90;75.70;;;;;;5076636;28;20051;-34
2022/12/29 11:58:43;;;;;;;3.15;1.10;;;11.90;72.20;;;;;;5077487;28;20501;-34
2022/12/29 12:01:23;;;;;;;0.98;0.95;;;11.90;74.70;;;;;;5081173;28;20170;-32
2022/12/29 12:04:05;;;;;;;1.38;1.08;;;11.90;73.60;;;;;;5086125;28;20425;-34
2022/12/29 12:06:36;;;;;;;4.07;1.10;;;11.80;76.00;;;;;;5068008;28;20393;-34
2022/12/29 12:09:18;;;;;;;1.10;1.00;;;11.90;73.10;;;;;;5076000;28;20035;-30
2022/12/29 12:11:45;;;;;;;1.30;1.20;;;11.80;74.60;;;;;;5074724;28;20062;-34
2022/12/29 12:14:27;;;;;;;1.58;0.70;;;11.80;74.70;;;;;;5085100;28;20055;-33
2022/12/29 12:16:59;;;;;;;1.08;1.00;;;11.70;76.80;;;;;;5075799;28;20036;-34
2022/12/29 12:19:43;;;;;;;1.75;1.10;;;11.70;76.20;;;;;;5080699;28;20453;-34
2022/12/29 12:22:35;;;;;;;1.17;1.08;;;11.80;74.40;;;;;;5078100;28;20067;-34
2022/12/29 12:25:17;;;;;;;3.08;0.90;;;11.70;74.30;;;;;;5075549;28;20029;-33
2022/12/29 12:28:08;;;;;;;2.10;1.02;;;11.60;77.00;;;;;;5064477;28;20043;-34
2022/12/29 12:30:48;;;;;;;1.17;0.80;;;11.60;77.30;;;;;;5059874;28;20039;-29
2022/12/29 12:33:37;;;;;;;1.00;0.90;;;11.60;78.40;;;;;;5073596;28;20024;-32
2022/12/29 12:36:24;;;;;;;1.20;1.20;;;11.60;76.50;;;;;;5078816;28;20436;-33
2022/12/29 12:39:12;;;;;;;1.00;0.77;;;11.60;77.90;;;;;;5075376;28;20504;-37
2022/12/29 12:42:05;;;;;;;2.35;0.68;;;11.60;80.80;;;;;;5070619;28;20023;-35
2022/12/29 12:44:51;;;;;;;0.57;0.57;;;11.60;80.30;;;;;;5067030;28;20444;-36
2022/12/29 12:48:08;;;;;;;1.02;0.90;;;11.60;80.30;;;;;;5069690;28;20032;-36
2022/12/29 12:51:02;;;;;;;1.27;1.00;;;11.70;78.50;;;;;;5067706;28;20366;-37
2022/12/29 12:53:34;;;;;;;0.93;0.85;;;11.80;77.00;;;;;;5066112;28;20493;-37
2022/12/29 12:56:18;;;;;;;0.75;0.63;;;11.90;77.20;;;;;;5072822;28;20031;-36
2022/12/29 12:59:18;;;;;;;1.40;0.88;;;11.80;80.10;;;;;;5075038;28;20028;-37
2022/12/29 13:02:15;;;;;;;0.75;0.75;;;11.80;79.40;;;;;;5062438;28;20119;-38
2022/12/29 13:04:59;;;;;;;0.80;0.80;;;11.80;82.00;;;;;;5069863;28;20036;-37
2022/12/29 13:07:59;;;;;;;1.27;0.88;;;11.80;83.40;;;;;;5073818;28;20028;-34
2022/12/29 13:10:53;;;;;;;0.70;0.68;;;11.80;83.70;;;;;;5067886;28;20036;-38
2022/12/29 13:13:58;;;;;;;0.70;0.70;;;11.90;80.60;;;;;;5066838;28;20621;-36
2022/12/29 13:16:53;;;;;;;0.50;0.45;;;11.90;82.10;;;;;;5068449;28;20168;-38
2022/12/29 13:19:31;;;;;;;0.90;0.57;;;11.80;86.90;;;;;;5070701;28;20389;-37
2022/12/29 13:22:15;;;;;;;0.70;0.70;;;11.80;85.80;;;;;;5070496;28;20039;-37
2022/12/29 13:25:20;;;;;;;0.60;0.60;;;11.80;86.10;;;;;;5077894;28;20131;-37
2022/12/29 13:28:12;;;;;;;1.63;0.85;;;11.70;89.20;;;;;;5061587;28;20386;-35
2022/12/29 13:31:04;;;;;;;5.18;0.88;;;11.60;89.50;;;;;;5069062;28;20063;-36
2022/12/29 13:34:14;;;;;;;1.65;0.75;;;11.60;89.30;;;;;;5076408;28;20027;-37
2022/12/29 13:36:49;;;;;;;1.45;0.80;;;11.60;90.30;;;;;;5070986;28;20086;-37
2022/12/29 13:39:20;;;;;;;2.22;0.80;;;11.60;90.60;;;;;;5069464;28;20021;-39
2022/12/29 13:41:52;;;;;;;1.65;0.98;;;11.60;89.50;;;;;;5078669;28;20039;-35
2022/12/29 13:44:34;;;;;;;0.80;0.80;;;11.50;90.60;;;;;;5071991;28;20032;-37
2022/12/29 13:47:06;;;;;;;1.00;0.93;;;11.50;90.30;;;;;;5076266;28;20120;-38
2022/12/29 13:49:33;;;;;;;0.68;0.68;;;11.40;91.70;;;;;;5071855;28;20747;-39
2022/12/29 13:52:30;;;;;;;0.95;0.95;;;11.40;91.40;;;;;;5064239;28;20024;-37
2022/12/29 13:55:08;;;;;;;3.10;0.85;;;11.50;91.20;;;;;;5077751;28;20028;-36